sensor_id;sensor_type;location;lat;lon;timestamp;P1;durP1;ratioP1;P2;durP2;ratioP2
19257;SDS011;9763;48.780;9.212;2022-12-18T00:01:05;15.07;;;8.17;;
19257;SDS011;9763;48.780;9.212;2022-12-18T00:04:39;10.37;;;6.20;;
19257;SDS011;9763;48.780;9.212;2022-12-18T00:08:05;12.27;;;8.60;;
19257;SDS011;9763;48.780;9.212;2022-12-18T00:11:30;16.30;;;8.00;;
19257;SDS011;9763;48.780;9.212;2022-12-18T00:14:54;9.80;;;6.07;;
19257;SDS011;9763;48.780;9.212;2022-12-18T00:18:18;10.10;;;6.50;;
19257;SDS011;9763;48.780;9.212;2022-12-18T00:21:41;10.97;;;6.30;;
19257;SDS011;9763;48.780;9.212;2022-12-18T00:25:08;8.90;;;5.90;;
19257;SDS011;9763;48.780;9.212;2022-12-18T00:28:32;9.60;;;5.90;;
19257;SDS011;9763;48.780;9.212;2022-12-18T00:31:55;10.80;;;6.20;;
19257;SDS011;9763;48.780;9.212;2022-12-18T00:35:19;8.57;;;5.33;;
19257;SDS011;9763;48.780;9.212;2022-12-18T00:38:43;11.10;;;6.07;;
19257;SDS011;9763;48.780;9.212;2022-12-18T00:42:09;11.33;;;5.93;;
19257;SDS011;9763;48.780;9.212;2022-12-18T00:45:50;11.73;;;6.93;;
19257;SDS011;9763;48.780;9.212;2022-12-18T00:49:15;13.70;;;7.23;;
19257;SDS011;9763;48.780;9.212;2022-12-18T00:52:41;13.50;;;7.93;;
19257;SDS011;9763;48.780;9.212;2022-12-18T00:56:05;13.40;;;8.17;;
19257;SDS011;9763;48.780;9.212;2022-12-18T00:59:30;15.07;;;8.07;;
19257;SDS011;9763;48.780;9.212;2022-12-18T01:02:54;11.73;;;7.13;;
19257;SDS011;9763;48.780;9.212;2022-12-18T01:06:19;12.60;;;6.80;;
19257;SDS011;9763;48.780;9.212;2022-12-18T01:09:42;9.57;;;6.30;;
19257;SDS011;9763;48.780;9.212;2022-12-18T01:13:06;14.47;;;8.10;;
19257;SDS011;9763;48.780;9.212;2022-12-18T01:16:31;19.10;;;10.70;;
19257;SDS011;9763;48.780;9.212;2022-12-18T01:19:54;18.73;;;10.40;;
19257;SDS011;9763;48.780;9.212;2022-12-18T01:23:18;12.70;;;8.03;;
19257;SDS011;9763;48.780;9.212;2022-12-18T01:26:41;12.43;;;8.40;;
19257;SDS011;9763;48.780;9.212;2022-12-18T01:30:05;10.93;;;6.97;;
19257;SDS011;9763;48.780;9.212;2022-12-18T01:33:31;10.83;;;6.50;;
19257;SDS011;9763;48.780;9.212;2022-12-18T01:36:55;12.37;;;7.23;;
19257;SDS011;9763;48.780;9.212;2022-12-18T01:40:20;11.70;;;6.97;;
19257;SDS011;9763;48.780;9.212;2022-12-18T01:43:50;12.00;;;5.90;;
19257;SDS011;9763;48.780;9.212;2022-12-18T01:47:18;8.57;;;5.67;;
19257;SDS011;9763;48.780;9.212;2022-12-18T01:50:49;10.47;;;5.70;;
19257;SDS011;9763;48.780;9.212;2022-12-18T01:54:13;12.37;;;6.70;;
19257;SDS011;9763;48.780;9.212;2022-12-18T01:57:37;11.90;;;6.70;;
19257;SDS011;9763;48.780;9.212;2022-12-18T02:01:02;9.70;;;5.97;;
19257;SDS011;9763;48.780;9.212;2022-12-18T02:04:27;11.77;;;7.90;;
19257;SDS011;9763;48.780;9.212;2022-12-18T02:07:55;13.13;;;6.57;;
19257;SDS011;9763;48.780;9.212;2022-12-18T02:11:37;10.27;;;6.03;;
19257;SDS011;9763;48.780;9.212;2022-12-18T02:15:13;13.60;;;7.30;;
19257;SDS011;9763;48.780;9.212;2022-12-18T02:18:48;12.33;;;7.20;;
19257;SDS011;9763;48.780;9.212;2022-12-18T02:22:26;12.17;;;7.63;;
19257;SDS011;9763;48.780;9.212;2022-12-18T02:26:09;8.43;;;5.23;;
19257;SDS011;9763;48.780;9.212;2022-12-18T02:29:46;11.27;;;6.87;;
19257;SDS011;9763;48.780;9.212;2022-12-18T02:33:19;10.57;;;6.00;;
19257;SDS011;9763;48.780;9.212;2022-12-18T02:36:47;11.23;;;6.07;;
19257;SDS011;9763;48.780;9.212;2022-12-18T02:40:14;6.52;;;5.04;;
19257;SDS011;9763;48.780;9.212;2022-12-18T02:43:42;6.73;;;4.57;;
19257;SDS011;9763;48.780;9.212;2022-12-18T02:47:14;11.00;;;6.80;;
19257;SDS011;9763;48.780;9.212;2022-12-18T02:50:44;9.13;;;5.47;;
19257;SDS011;9763;48.780;9.212;2022-12-18T02:54:32;10.43;;;6.30;;
19257;SDS011;9763;48.780;9.212;2022-12-18T02:58:14;9.80;;;5.27;;
19257;SDS011;9763;48.780;9.212;2022-12-18T03:01:49;6.87;;;4.90;;
19257;SDS011;9763;48.780;9.212;2022-12-18T03:05:22;8.57;;;4.83;;
19257;SDS011;9763;48.780;9.212;2022-12-18T03:08:54;9.40;;;5.57;;
19257;SDS011;9763;48.780;9.212;2022-12-18T03:12:24;7.40;;;4.37;;
19257;SDS011;9763;48.780;9.212;2022-12-18T03:15:55;8.43;;;4.77;;
19257;SDS011;9763;48.780;9.212;2022-12-18T03:19:24;10.10;;;6.43;;
19257;SDS011;9763;48.780;9.212;2022-12-18T03:22:56;10.07;;;5.73;;
19257;SDS011;9763;48.780;9.212;2022-12-18T03:26:26;10.00;;;5.90;;
19257;SDS011;9763;48.780;9.212;2022-12-18T03:29:56;10.27;;;5.77;;
19257;SDS011;9763;48.780;9.212;2022-12-18T03:33:32;8.50;;;5.70;;
19257;SDS011;9763;48.780;9.212;2022-12-18T03:37:05;10.60;;;4.37;;
19257;SDS011;9763;48.780;9.212;2022-12-18T03:40:31;9.47;;;5.50;;
19257;SDS011;9763;48.780;9.212;2022-12-18T03:44:08;7.50;;;4.87;;
19257;SDS011;9763;48.780;9.212;2022-12-18T03:47:42;9.20;;;6.07;;
19257;SDS011;9763;48.780;9.212;2022-12-18T03:51:27;8.57;;;5.80;;
19257;SDS011;9763;48.780;9.212;2022-12-18T03:55:03;7.30;;;4.73;;
19257;SDS011;9763;48.780;9.212;2022-12-18T03:58:31;11.77;;;5.13;;
19257;SDS011;9763;48.780;9.212;2022-12-18T04:02:14;7.93;;;4.30;;
19257;SDS011;9763;48.780;9.212;2022-12-18T04:05:40;5.57;;;4.27;;
19257;SDS011;9763;48.780;9.212;2022-12-18T04:09:08;9.60;;;4.80;;
19257;SDS011;9763;48.780;9.212;2022-12-18T04:12:38;7.40;;;5.10;;
19257;SDS011;9763;48.780;9.212;2022-12-18T04:16:04;7.63;;;4.60;;
19257;SDS011;9763;48.780;9.212;2022-12-18T04:19:31;6.27;;;3.67;;
19257;SDS011;9763;48.780;9.212;2022-12-18T04:22:56;5.17;;;4.07;;
19257;SDS011;9763;48.780;9.212;2022-12-18T04:26:21;8.27;;;4.97;;
19257;SDS011;9763;48.780;9.212;2022-12-18T04:30:00;7.40;;;4.93;;
19257;SDS011;9763;48.780;9.212;2022-12-18T04:33:24;7.17;;;4.83;;
19257;SDS011;9763;48.780;9.212;2022-12-18T04:36:49;5.60;;;4.47;;
19257;SDS011;9763;48.780;9.212;2022-12-18T04:40:12;9.70;;;5.00;;
19257;SDS011;9763;48.780;9.212;2022-12-18T04:43:39;5.50;;;3.43;;
19257;SDS011;9763;48.780;9.212;2022-12-18T04:47:04;7.90;;;4.40;;
19257;SDS011;9763;48.780;9.212;2022-12-18T04:50:29;6.50;;;4.27;;
19257;SDS011;9763;48.780;9.212;2022-12-18T04:53:53;10.33;;;4.50;;
19257;SDS011;9763;48.780;9.212;2022-12-18T04:57:17;7.60;;;3.97;;
19257;SDS011;9763;48.780;9.212;2022-12-18T05:00:40;5.77;;;4.10;;
19257;SDS011;9763;48.780;9.212;2022-12-18T05:04:05;9.57;;;5.60;;
19257;SDS011;9763;48.780;9.212;2022-12-18T05:07:29;8.30;;;6.00;;
19257;SDS011;9763;48.780;9.212;2022-12-18T05:10:57;9.00;;;4.83;;
19257;SDS011;9763;48.780;9.212;2022-12-18T05:14:22;7.37;;;4.27;;
19257;SDS011;9763;48.780;9.212;2022-12-18T05:17:46;9.70;;;5.27;;
19257;SDS011;9763;48.780;9.212;2022-12-18T05:21:10;9.20;;;5.53;;
19257;SDS011;9763;48.780;9.212;2022-12-18T05:24:34;10.20;;;5.80;;
19257;SDS011;9763;48.780;9.212;2022-12-18T05:27:57;5.03;;;3.97;;
19257;SDS011;9763;48.780;9.212;2022-12-18T05:31:21;8.00;;;4.20;;
19257;SDS011;9763;48.780;9.212;2022-12-18T05:34:44;6.13;;;4.00;;
19257;SDS011;9763;48.780;9.212;2022-12-18T05:38:09;8.30;;;4.77;;
19257;SDS011;9763;48.780;9.212;2022-12-18T05:41:33;4.83;;;4.10;;
19257;SDS011;9763;48.780;9.212;2022-12-18T05:44:57;6.43;;;4.10;;
19257;SDS011;9763;48.780;9.212;2022-12-18T05:48:20;7.47;;;4.27;;
19257;SDS011;9763;48.780;9.212;2022-12-18T05:51:44;7.43;;;4.77;;
19257;SDS011;9763;48.780;9.212;2022-12-18T05:55:09;9.80;;;5.30;;
19257;SDS011;9763;48.780;9.212;2022-12-18T05:58:33;5.57;;;4.00;;
19257;SDS011;9763;48.780;9.212;2022-12-18T06:01:57;6.43;;;4.23;;
19257;SDS011;9763;48.780;9.212;2022-12-18T06:05:21;7.37;;;4.00;;
19257;SDS011;9763;48.780;9.212;2022-12-18T06:08:44;6.80;;;3.70;;
19257;SDS011;9763;48.780;9.212;2022-12-18T06:12:10;8.30;;;4.07;;
19257;SDS011;9763;48.780;9.212;2022-12-18T06:15:35;7.10;;;4.10;;
19257;SDS011;9763;48.780;9.212;2022-12-18T06:19:01;9.77;;;4.50;;
19257;SDS011;9763;48.780;9.212;2022-12-18T06:22:28;7.67;;;4.40;;
19257;SDS011;9763;48.780;9.212;2022-12-18T06:25:54;6.17;;;4.10;;
19257;SDS011;9763;48.780;9.212;2022-12-18T06:29:19;6.80;;;3.47;;
19257;SDS011;9763;48.780;9.212;2022-12-18T06:32:42;8.57;;;5.50;;
19257;SDS011;9763;48.780;9.212;2022-12-18T06:36:09;10.67;;;4.73;;
19257;SDS011;9763;48.780;9.212;2022-12-18T06:39:35;6.10;;;4.10;;
19257;SDS011;9763;48.780;9.212;2022-12-18T06:42:59;7.23;;;3.73;;
19257;SDS011;9763;48.780;9.212;2022-12-18T06:46:24;6.77;;;3.97;;
19257;SDS011;9763;48.780;9.212;2022-12-18T06:49:48;5.47;;;3.57;;
19257;SDS011;9763;48.780;9.212;2022-12-18T06:53:12;6.47;;;4.47;;
19257;SDS011;9763;48.780;9.212;2022-12-18T06:56:36;7.50;;;4.50;;
19257;SDS011;9763;48.780;9.212;2022-12-18T06:59:59;7.37;;;4.07;;
19257;SDS011;9763;48.780;9.212;2022-12-18T07:03:25;5.63;;;4.10;;
19257;SDS011;9763;48.780;9.212;2022-12-18T07:06:49;5.43;;;3.80;;
19257;SDS011;9763;48.780;9.212;2022-12-18T07:10:12;6.27;;;4.47;;
19257;SDS011;9763;48.780;9.212;2022-12-18T07:13:36;8.00;;;4.60;;
19257;SDS011;9763;48.780;9.212;2022-12-18T07:17:00;6.30;;;4.40;;
19257;SDS011;9763;48.780;9.212;2022-12-18T07:20:25;5.53;;;4.20;;
19257;SDS011;9763;48.780;9.212;2022-12-18T07:23:49;5.57;;;3.70;;
19257;SDS011;9763;48.780;9.212;2022-12-18T07:27:12;7.10;;;4.30;;
19257;SDS011;9763;48.780;9.212;2022-12-18T07:30:36;5.10;;;4.00;;
19257;SDS011;9763;48.780;9.212;2022-12-18T07:34:00;7.23;;;3.90;;
19257;SDS011;9763;48.780;9.212;2022-12-18T07:37:26;5.37;;;3.30;;
19257;SDS011;9763;48.780;9.212;2022-12-18T07:40:49;6.53;;;3.97;;
19257;SDS011;9763;48.780;9.212;2022-12-18T07:44:13;6.93;;;4.20;;
19257;SDS011;9763;48.780;9.212;2022-12-18T07:47:36;6.13;;;3.80;;
19257;SDS011;9763;48.780;9.212;2022-12-18T07:51:03;7.27;;;4.03;;
19257;SDS011;9763;48.780;9.212;2022-12-18T07:54:30;7.47;;;4.47;;
19257;SDS011;9763;48.780;9.212;2022-12-18T07:57:53;5.33;;;4.33;;
19257;SDS011;9763;48.780;9.212;2022-12-18T08:01:21;6.50;;;4.20;;
19257;SDS011;9763;48.780;9.212;2022-12-18T08:04:46;6.10;;;4.60;;
19257;SDS011;9763;48.780;9.212;2022-12-18T08:08:09;4.33;;;2.90;;
19257;SDS011;9763;48.780;9.212;2022-12-18T08:11:34;9.00;;;5.13;;
19257;SDS011;9763;48.780;9.212;2022-12-18T08:14:57;8.53;;;5.10;;
19257;SDS011;9763;48.780;9.212;2022-12-18T08:18:21;5.33;;;3.77;;
19257;SDS011;9763;48.780;9.212;2022-12-18T08:21:44;6.47;;;3.90;;
19257;SDS011;9763;48.780;9.212;2022-12-18T08:25:08;7.17;;;4.87;;
19257;SDS011;9763;48.780;9.212;2022-12-18T08:28:34;5.37;;;3.63;;
19257;SDS011;9763;48.780;9.212;2022-12-18T08:31:57;8.00;;;4.70;;
19257;SDS011;9763;48.780;9.212;2022-12-18T08:35:21;7.67;;;4.70;;
19257;SDS011;9763;48.780;9.212;2022-12-18T08:38:45;7.80;;;5.30;;
19257;SDS011;9763;48.780;9.212;2022-12-18T08:42:09;5.87;;;4.43;;
19257;SDS011;9763;48.780;9.212;2022-12-18T08:45:51;8.73;;;5.60;;
19257;SDS011;9763;48.780;9.212;2022-12-18T08:49:15;8.50;;;5.10;;
19257;SDS011;9763;48.780;9.212;2022-12-18T08:52:38;7.80;;;5.43;;
19257;SDS011;9763;48.780;9.212;2022-12-18T08:56:02;11.20;;;5.57;;
19257;SDS011;9763;48.780;9.212;2022-12-18T08:59:25;7.53;;;5.03;;
19257;SDS011;9763;48.780;9.212;2022-12-18T09:02:50;7.80;;;6.10;;
19257;SDS011;9763;48.780;9.212;2022-12-18T09:06:14;14.13;;;6.50;;
19257;SDS011;9763;48.780;9.212;2022-12-18T09:09:40;10.90;;;6.80;;
19257;SDS011;9763;48.780;9.212;2022-12-18T09:13:03;10.87;;;7.60;;
19257;SDS011;9763;48.780;9.212;2022-12-18T09:16:27;14.30;;;7.90;;
19257;SDS011;9763;48.780;9.212;2022-12-18T09:19:55;10.27;;;7.20;;
19257;SDS011;9763;48.780;9.212;2022-12-18T09:23:18;13.50;;;7.50;;
19257;SDS011;9763;48.780;9.212;2022-12-18T09:26:42;13.30;;;7.77;;
19257;SDS011;9763;48.780;9.212;2022-12-18T09:30:08;12.37;;;7.43;;
19257;SDS011;9763;48.780;9.212;2022-12-18T09:33:33;12.77;;;7.07;;
19257;SDS011;9763;48.780;9.212;2022-12-18T09:36:58;14.63;;;7.73;;
19257;SDS011;9763;48.780;9.212;2022-12-18T09:40:22;14.87;;;8.70;;
19257;SDS011;9763;48.780;9.212;2022-12-18T09:43:51;11.70;;;7.23;;
19257;SDS011;9763;48.780;9.212;2022-12-18T09:47:23;12.30;;;8.07;;
19257;SDS011;9763;48.780;9.212;2022-12-18T09:50:53;16.23;;;8.80;;
19257;SDS011;9763;48.780;9.212;2022-12-18T09:54:28;12.80;;;8.43;;
19257;SDS011;9763;48.780;9.212;2022-12-18T09:58:05;15.43;;;8.80;;
19257;SDS011;9763;48.780;9.212;2022-12-18T10:01:38;12.97;;;7.80;;
19257;SDS011;9763;48.780;9.212;2022-12-18T10:05:05;11.53;;;7.33;;
19257;SDS011;9763;48.780;9.212;2022-12-18T10:08:37;11.90;;;7.97;;
19257;SDS011;9763;48.780;9.212;2022-12-18T10:12:12;12.37;;;7.03;;
19257;SDS011;9763;48.780;9.212;2022-12-18T10:15:50;10.20;;;5.77;;
19257;SDS011;9763;48.780;9.212;2022-12-18T10:19:35;12.30;;;7.47;;
19257;SDS011;9763;48.780;9.212;2022-12-18T10:23:12;12.67;;;7.47;;
19257;SDS011;9763;48.780;9.212;2022-12-18T10:26:44;13.00;;;7.40;;
19257;SDS011;9763;48.780;9.212;2022-12-18T10:30:18;11.40;;;7.30;;
19257;SDS011;9763;48.780;9.212;2022-12-18T10:33:45;12.87;;;8.60;;
19257;SDS011;9763;48.780;9.212;2022-12-18T10:37:10;11.50;;;7.53;;
19257;SDS011;9763;48.780;9.212;2022-12-18T10:40:47;10.90;;;6.97;;
19257;SDS011;9763;48.780;9.212;2022-12-18T10:44:16;17.27;;;9.27;;
19257;SDS011;9763;48.780;9.212;2022-12-18T10:47:44;20.43;;;12.83;;
19257;SDS011;9763;48.780;9.212;2022-12-18T10:51:10;26.07;;;15.60;;
19257;SDS011;9763;48.780;9.212;2022-12-18T10:54:48;34.73;;;19.27;;
19257;SDS011;9763;48.780;9.212;2022-12-18T10:58:18;29.77;;;20.50;;
19257;SDS011;9763;48.780;9.212;2022-12-18T11:01:49;24.60;;;18.10;;
19257;SDS011;9763;48.780;9.212;2022-12-18T11:05:25;18.10;;;13.93;;
19257;SDS011;9763;48.780;9.212;2022-12-18T11:08:57;20.30;;;15.57;;
19257;SDS011;9763;48.780;9.212;2022-12-18T11:12:26;18.60;;;14.33;;
19257;SDS011;9763;48.780;9.212;2022-12-18T11:15:52;21.20;;;15.53;;
19257;SDS011;9763;48.780;9.212;2022-12-18T11:23:01;25.83;;;17.43;;
19257;SDS011;9763;48.780;9.212;2022-12-18T11:26:33;23.80;;;15.30;;
19257;SDS011;9763;48.780;9.212;2022-12-18T11:30:06;20.17;;;14.73;;
19257;SDS011;9763;48.780;9.212;2022-12-18T11:33:42;22.67;;;14.70;;
19257;SDS011;9763;48.780;9.212;2022-12-18T11:37:32;18.00;;;12.20;;
19257;SDS011;9763;48.780;9.212;2022-12-18T11:41:00;17.00;;;12.47;;
19257;SDS011;9763;48.780;9.212;2022-12-18T11:44:38;16.23;;;10.47;;
19257;SDS011;9763;48.780;9.212;2022-12-18T11:48:12;15.87;;;9.90;;
19257;SDS011;9763;48.780;9.212;2022-12-18T11:51:44;15.73;;;9.90;;
19257;SDS011;9763;48.780;9.212;2022-12-18T11:55:16;14.70;;;10.50;;
19257;SDS011;9763;48.780;9.212;2022-12-18T11:58:53;17.60;;;11.10;;
19257;SDS011;9763;48.780;9.212;2022-12-18T12:02:38;19.70;;;10.60;;
19257;SDS011;9763;48.780;9.212;2022-12-18T12:06:31;12.97;;;10.10;;
19257;SDS011;9763;48.780;9.212;2022-12-18T12:10:15;16.47;;;10.63;;
19257;SDS011;9763;48.780;9.212;2022-12-18T12:14:03;16.50;;;10.97;;
19257;SDS011;9763;48.780;9.212;2022-12-18T12:17:51;14.67;;;10.07;;
19257;SDS011;9763;48.780;9.212;2022-12-18T12:21:34;17.20;;;9.80;;
19257;SDS011;9763;48.780;9.212;2022-12-18T12:25:06;20.00;;;10.67;;
19257;SDS011;9763;48.780;9.212;2022-12-18T12:28:48;15.50;;;10.00;;
19257;SDS011;9763;48.780;9.212;2022-12-18T12:32:36;18.77;;;10.90;;
19257;SDS011;9763;48.780;9.212;2022-12-18T12:36:18;20.53;;;9.70;;
19257;SDS011;9763;48.780;9.212;2022-12-18T12:39:54;17.67;;;10.37;;
19257;SDS011;9763;48.780;9.212;2022-12-18T12:43:24;17.87;;;10.60;;
19257;SDS011;9763;48.780;9.212;2022-12-18T12:47:13;20.30;;;11.53;;
19257;SDS011;9763;48.780;9.212;2022-12-18T12:50:42;21.73;;;12.17;;
19257;SDS011;9763;48.780;9.212;2022-12-18T12:54:11;15.77;;;9.80;;
19257;SDS011;9763;48.780;9.212;2022-12-18T12:57:43;21.17;;;10.97;;
19257;SDS011;9763;48.780;9.212;2022-12-18T13:01:17;18.63;;;10.60;;
19257;SDS011;9763;48.780;9.212;2022-12-18T13:04:57;17.90;;;9.90;;
19257;SDS011;9763;48.780;9.212;2022-12-18T13:08:34;16.87;;;10.97;;
19257;SDS011;9763;48.780;9.212;2022-12-18T13:12:17;20.07;;;10.80;;
19257;SDS011;9763;48.780;9.212;2022-12-18T13:16:03;17.73;;;11.03;;
19257;SDS011;9763;48.780;9.212;2022-12-18T13:19:32;17.90;;;10.57;;
19257;SDS011;9763;48.780;9.212;2022-12-18T13:22:56;24.97;;;12.90;;
19257;SDS011;9763;48.780;9.212;2022-12-18T13:30:11;23.70;;;14.50;;
19257;SDS011;9763;48.780;9.212;2022-12-18T13:34:11;30.47;;;13.87;;
19257;SDS011;9763;48.780;9.212;2022-12-18T13:37:52;20.37;;;14.20;;
19257;SDS011;9763;48.780;9.212;2022-12-18T13:41:21;22.33;;;13.83;;
19257;SDS011;9763;48.780;9.212;2022-12-18T13:44:48;19.80;;;13.20;;
19257;SDS011;9763;48.780;9.212;2022-12-18T13:48:17;26.67;;;15.20;;
19257;SDS011;9763;48.780;9.212;2022-12-18T13:51:46;22.40;;;13.97;;
19257;SDS011;9763;48.780;9.212;2022-12-18T13:55:14;21.40;;;13.80;;
19257;SDS011;9763;48.780;9.212;2022-12-18T13:58:42;23.87;;;13.80;;
19257;SDS011;9763;48.780;9.212;2022-12-18T14:02:12;20.57;;;13.27;;
19257;SDS011;9763;48.780;9.212;2022-12-18T14:05:40;22.00;;;14.70;;
19257;SDS011;9763;48.780;9.212;2022-12-18T14:09:10;21.67;;;13.00;;
19257;SDS011;9763;48.780;9.212;2022-12-18T14:12:44;18.87;;;13.97;;
19257;SDS011;9763;48.780;9.212;2022-12-18T14:16:23;19.60;;;13.50;;
19257;SDS011;9763;48.780;9.212;2022-12-18T14:19:48;23.87;;;14.60;;
19257;SDS011;9763;48.780;9.212;2022-12-18T14:26:59;19.17;;;11.97;;
19257;SDS011;9763;48.780;9.212;2022-12-18T14:30:44;17.43;;;10.37;;
19257;SDS011;9763;48.780;9.212;2022-12-18T14:34:14;17.97;;;12.30;;
19257;SDS011;9763;48.780;9.212;2022-12-18T14:37:38;21.40;;;12.20;;
19257;SDS011;9763;48.780;9.212;2022-12-18T14:41:04;20.20;;;11.50;;
19257;SDS011;9763;48.780;9.212;2022-12-18T14:44:33;16.07;;;10.70;;
19257;SDS011;9763;48.780;9.212;2022-12-18T14:48:17;21.70;;;11.20;;
19257;SDS011;9763;48.780;9.212;2022-12-18T14:51:46;16.30;;;10.77;;
19257;SDS011;9763;48.780;9.212;2022-12-18T14:55:14;20.13;;;11.10;;
19257;SDS011;9763;48.780;9.212;2022-12-18T14:58:40;16.40;;;10.70;;
19257;SDS011;9763;48.780;9.212;2022-12-18T15:02:10;19.53;;;12.80;;
19257;SDS011;9763;48.780;9.212;2022-12-18T15:05:44;18.23;;;10.63;;
19257;SDS011;9763;48.780;9.212;2022-12-18T15:09:20;21.70;;;12.47;;
19257;SDS011;9763;48.780;9.212;2022-12-18T15:12:47;17.90;;;11.27;;
19257;SDS011;9763;48.780;9.212;2022-12-18T15:16:14;16.60;;;10.73;;
19257;SDS011;9763;48.780;9.212;2022-12-18T15:19:40;19.07;;;12.00;;
19257;SDS011;9763;48.780;9.212;2022-12-18T15:23:12;21.03;;;12.97;;
19257;SDS011;9763;48.780;9.212;2022-12-18T15:26:39;23.57;;;13.47;;
19257;SDS011;9763;48.780;9.212;2022-12-18T15:30:16;25.93;;;14.13;;
19257;SDS011;9763;48.780;9.212;2022-12-18T15:33:45;23.70;;;13.57;;
19257;SDS011;9763;48.780;9.212;2022-12-18T15:37:35;18.83;;;10.80;;
19257;SDS011;9763;48.780;9.212;2022-12-18T15:41:00;21.30;;;12.13;;
19257;SDS011;9763;48.780;9.212;2022-12-18T15:44:28;20.80;;;13.27;;
19257;SDS011;9763;48.780;9.212;2022-12-18T15:47:52;21.73;;;11.30;;
19257;SDS011;9763;48.780;9.212;2022-12-18T15:51:18;22.57;;;11.37;;
19257;SDS011;9763;48.780;9.212;2022-12-18T15:54:45;19.97;;;11.10;;
19257;SDS011;9763;48.780;9.212;2022-12-18T15:58:27;20.70;;;11.57;;
19257;SDS011;9763;48.780;9.212;2022-12-18T16:01:51;20.07;;;11.43;;
19257;SDS011;9763;48.780;9.212;2022-12-18T16:05:16;18.27;;;11.53;;
19257;SDS011;9763;48.780;9.212;2022-12-18T16:08:43;19.13;;;10.70;;
19257;SDS011;9763;48.780;9.212;2022-12-18T16:12:08;20.17;;;12.80;;
19257;SDS011;9763;48.780;9.212;2022-12-18T16:15:40;18.23;;;11.80;;
19257;SDS011;9763;48.780;9.212;2022-12-18T16:19:04;20.57;;;11.60;;
19257;SDS011;9763;48.780;9.212;2022-12-18T16:22:28;22.30;;;12.60;;
19257;SDS011;9763;48.780;9.212;2022-12-18T16:25:54;21.37;;;11.67;;
19257;SDS011;9763;48.780;9.212;2022-12-18T16:29:18;21.27;;;11.73;;
19257;SDS011;9763;48.780;9.212;2022-12-18T16:36:38;16.30;;;10.57;;
19257;SDS011;9763;48.780;9.212;2022-12-18T16:40:02;19.93;;;11.40;;
19257;SDS011;9763;48.780;9.212;2022-12-18T16:43:31;18.67;;;11.40;;
19257;SDS011;9763;48.780;9.212;2022-12-18T16:46:55;20.97;;;12.63;;
19257;SDS011;9763;48.780;9.212;2022-12-18T16:50:23;17.40;;;10.83;;
19257;SDS011;9763;48.780;9.212;2022-12-18T16:53:47;14.47;;;9.43;;
19257;SDS011;9763;48.780;9.212;2022-12-18T16:57:12;17.43;;;10.33;;
19257;SDS011;9763;48.780;9.212;2022-12-18T17:00:40;20.77;;;11.80;;
19257;SDS011;9763;48.780;9.212;2022-12-18T17:04:04;19.43;;;12.07;;
19257;SDS011;9763;48.780;9.212;2022-12-18T17:07:29;18.23;;;11.73;;
19257;SDS011;9763;48.780;9.212;2022-12-18T17:10:53;14.30;;;10.43;;
19257;SDS011;9763;48.780;9.212;2022-12-18T17:14:17;18.50;;;10.60;;
19257;SDS011;9763;48.780;9.212;2022-12-18T17:17:45;17.60;;;11.07;;
19257;SDS011;9763;48.780;9.212;2022-12-18T17:21:09;18.70;;;10.20;;
19257;SDS011;9763;48.780;9.212;2022-12-18T17:24:35;18.80;;;11.37;;
19257;SDS011;9763;48.780;9.212;2022-12-18T17:27:58;18.53;;;11.00;;
19257;SDS011;9763;48.780;9.212;2022-12-18T17:31:22;15.57;;;10.67;;
19257;SDS011;9763;48.780;9.212;2022-12-18T17:34:49;16.93;;;10.57;;
19257;SDS011;9763;48.780;9.212;2022-12-18T17:38:13;18.50;;;11.10;;
19257;SDS011;9763;48.780;9.212;2022-12-18T17:41:37;15.53;;;10.80;;
19257;SDS011;9763;48.780;9.212;2022-12-18T17:45:01;19.90;;;10.93;;
19257;SDS011;9763;48.780;9.212;2022-12-18T17:48:24;17.80;;;11.50;;
19257;SDS011;9763;48.780;9.212;2022-12-18T17:51:49;17.67;;;11.07;;
19257;SDS011;9763;48.780;9.212;2022-12-18T17:55:14;21.73;;;12.40;;
19257;SDS011;9763;48.780;9.212;2022-12-18T17:58:38;20.47;;;11.37;;
19257;SDS011;9763;48.780;9.212;2022-12-18T18:02:02;18.20;;;12.17;;
19257;SDS011;9763;48.780;9.212;2022-12-18T18:05:27;20.07;;;11.87;;
19257;SDS011;9763;48.780;9.212;2022-12-18T18:08:52;19.60;;;11.43;;
19257;SDS011;9763;48.780;9.212;2022-12-18T18:12:17;19.40;;;11.07;;
19257;SDS011;9763;48.780;9.212;2022-12-18T18:15:58;18.47;;;11.70;;
19257;SDS011;9763;48.780;9.212;2022-12-18T18:19:24;15.93;;;10.00;;
19257;SDS011;9763;48.780;9.212;2022-12-18T18:22:47;17.87;;;11.33;;
19257;SDS011;9763;48.780;9.212;2022-12-18T18:26:12;18.27;;;11.70;;
19257;SDS011;9763;48.780;9.212;2022-12-18T18:29:37;18.97;;;11.37;;
19257;SDS011;9763;48.780;9.212;2022-12-18T18:33:01;18.30;;;11.93;;
19257;SDS011;9763;48.780;9.212;2022-12-18T18:36:32;21.37;;;12.27;;
19257;SDS011;9763;48.780;9.212;2022-12-18T18:39:56;20.67;;;11.30;;
19257;SDS011;9763;48.780;9.212;2022-12-18T18:43:23;20.97;;;11.40;;
19257;SDS011;9763;48.780;9.212;2022-12-18T18:46:47;16.70;;;10.33;;
19257;SDS011;9763;48.780;9.212;2022-12-18T18:50:15;21.90;;;12.17;;
19257;SDS011;9763;48.780;9.212;2022-12-18T18:53:39;13.90;;;10.07;;
19257;SDS011;9763;48.780;9.212;2022-12-18T18:57:05;18.93;;;11.90;;
19257;SDS011;9763;48.780;9.212;2022-12-18T19:00:55;14.87;;;10.20;;
19257;SDS011;9763;48.780;9.212;2022-12-18T19:04:21;15.90;;;10.90;;
19257;SDS011;9763;48.780;9.212;2022-12-18T19:07:46;18.20;;;11.40;;
19257;SDS011;9763;48.780;9.212;2022-12-18T19:11:10;19.47;;;11.70;;
19257;SDS011;9763;48.780;9.212;2022-12-18T19:14:55;17.07;;;11.43;;
19257;SDS011;9763;48.780;9.212;2022-12-18T19:18:20;18.60;;;11.77;;
19257;SDS011;9763;48.780;9.212;2022-12-18T19:21:45;18.97;;;12.17;;
19257;SDS011;9763;48.780;9.212;2022-12-18T19:25:08;18.90;;;11.63;;
19257;SDS011;9763;48.780;9.212;2022-12-18T19:28:32;22.03;;;13.80;;
19257;SDS011;9763;48.780;9.212;2022-12-18T19:31:57;17.67;;;10.50;;
19257;SDS011;9763;48.780;9.212;2022-12-18T19:35:22;18.33;;;11.27;;
19257;SDS011;9763;48.780;9.212;2022-12-18T19:38:46;15.27;;;9.17;;
19257;SDS011;9763;48.780;9.212;2022-12-18T19:42:11;12.47;;;8.73;;
19257;SDS011;9763;48.780;9.212;2022-12-18T19:45:34;14.63;;;10.17;;
19257;SDS011;9763;48.780;9.212;2022-12-18T19:48:58;15.03;;;10.67;;
19257;SDS011;9763;48.780;9.212;2022-12-18T19:52:24;21.90;;;11.70;;
19257;SDS011;9763;48.780;9.212;2022-12-18T19:55:48;15.30;;;9.87;;
19257;SDS011;9763;48.780;9.212;2022-12-18T19:59:12;16.20;;;11.20;;
19257;SDS011;9763;48.780;9.212;2022-12-18T20:02:36;18.23;;;10.50;;
19257;SDS011;9763;48.780;9.212;2022-12-18T20:06:06;15.03;;;9.27;;
19257;SDS011;9763;48.780;9.212;2022-12-18T20:09:33;15.27;;;9.90;;
19257;SDS011;9763;48.780;9.212;2022-12-18T20:12:57;14.50;;;9.17;;
19257;SDS011;9763;48.780;9.212;2022-12-18T20:16:21;18.60;;;10.63;;
19257;SDS011;9763;48.780;9.212;2022-12-18T20:19:46;15.50;;;9.50;;
19257;SDS011;9763;48.780;9.212;2022-12-18T20:23:09;14.77;;;9.23;;
19257;SDS011;9763;48.780;9.212;2022-12-18T20:26:34;17.93;;;11.30;;
19257;SDS011;9763;48.780;9.212;2022-12-18T20:29:58;18.37;;;11.93;;
19257;SDS011;9763;48.780;9.212;2022-12-18T20:33:21;19.20;;;11.73;;
19257;SDS011;9763;48.780;9.212;2022-12-18T20:36:45;16.83;;;9.90;;
19257;SDS011;9763;48.780;9.212;2022-12-18T20:40:09;18.37;;;10.63;;
19257;SDS011;9763;48.780;9.212;2022-12-18T20:43:35;17.10;;;12.00;;
19257;SDS011;9763;48.780;9.212;2022-12-18T20:47:00;19.27;;;11.20;;
19257;SDS011;9763;48.780;9.212;2022-12-18T20:50:29;15.50;;;9.80;;
19257;SDS011;9763;48.780;9.212;2022-12-18T20:53:53;16.93;;;11.10;;
19257;SDS011;9763;48.780;9.212;2022-12-18T20:57:17;19.63;;;10.43;;
19257;SDS011;9763;48.780;9.212;2022-12-18T21:00:42;15.63;;;9.90;;
19257;SDS011;9763;48.780;9.212;2022-12-18T21:04:06;16.60;;;10.27;;
19257;SDS011;9763;48.780;9.212;2022-12-18T21:07:29;19.37;;;11.80;;